Аэропорт: Брянск. Брянск

ICAO: UUBP

METAR:
2021-10-23 02:00:00
UUBP 230200Z 18004MPS CAVOK 02/M01 Q1007 R16/CLRD70 NOSIG RMK QFE737/0983
METAR:
Информация по данной станции не доступна